createdAt,value
2023-01-31T00:01:12.057Z,16.27
2023-01-31T00:04:13.910Z,10.63
2023-01-31T00:07:15.969Z,14.13
2023-01-31T00:10:18.195Z,14.90
2023-01-31T00:13:20.205Z,13.90
2023-01-31T00:16:23.477Z,13.48
2023-01-31T00:19:25.359Z,14.00
2023-01-31T00:22:27.197Z,17.42
2023-01-31T00:25:29.153Z,12.55
2023-01-31T00:28:31.145Z,11.90
2023-01-31T00:31:42.732Z,10.93
2023-01-31T00:34:47.765Z,11.60
2023-01-31T00:37:49.623Z,13.02
2023-01-31T00:40:53.128Z,10.98
2023-01-31T00:43:55.264Z,13.18
2023-01-31T00:46:57.150Z,13.52
2023-01-31T00:49:59.657Z,15.35
2023-01-31T00:53:01.564Z,12.05
2023-01-31T00:56:07.348Z,15.25
2023-01-31T00:59:11.486Z,13.77
2023-01-31T01:02:14.585Z,12.80
2023-01-31T01:08:29.483Z,15.35
2023-01-31T01:11:33.646Z,13.32
2023-01-31T01:14:36.590Z,12.43
2023-01-31T01:17:39.068Z,14.50
2023-01-31T01:20:41.087Z,14.68
2023-01-31T01:23:43.697Z,12.88
2023-01-31T01:26:46.424Z,12.25
2023-01-31T01:29:48.348Z,11.20
2023-01-31T01:32:50.182Z,11.95
2023-01-31T01:35:52.098Z,14.05
2023-01-31T01:38:56.928Z,14.20
2023-01-31T01:41:58.977Z,18.88
2023-01-31T01:45:02.702Z,13.85
2023-01-31T01:48:07.506Z,13.38
2023-01-31T01:51:09.861Z,15.77
2023-01-31T01:54:17.517Z,12.52
2023-01-31T01:57:25.871Z,14.43
2023-01-31T02:00:30.069Z,14.10
2023-01-31T02:03:32.411Z,16.45
2023-01-31T02:06:36.775Z,13.10
2023-01-31T02:09:52.593Z,14.38
2023-01-31T02:12:54.687Z,17.50
2023-01-31T02:15:57.604Z,13.38
2023-01-31T02:18:59.847Z,14.85
2023-01-31T02:22:10.273Z,15.15
2023-01-31T02:25:24.233Z,15.18
2023-01-31T02:28:41.818Z,17.75
2023-01-31T02:31:47.010Z,16.23
2023-01-31T02:35:03.624Z,16.70
2023-01-31T02:38:25.953Z,16.08
2023-01-31T02:41:45.759Z,13.95
2023-01-31T02:44:55.199Z,18.88
2023-01-31T02:48:05.745Z,19.45
2023-01-31T02:51:32.210Z,20.70
2023-01-31T02:54:37.123Z,14.25
2023-01-31T02:57:40.890Z,16.23
2023-01-31T03:00:46.063Z,19.67
2023-01-31T03:03:48.443Z,13.55
2023-01-31T03:06:59.052Z,16.05
2023-01-31T03:10:30.200Z,17.33
2023-01-31T03:13:50.719Z,17.13
2023-01-31T03:17:13.461Z,17.15
2023-01-31T03:20:30.345Z,19.38
2023-01-31T03:23:36.308Z,16.90
2023-01-31T03:26:38.945Z,16.90
2023-01-31T03:29:42.939Z,17.33
2023-01-31T03:32:53.448Z,20.92
2023-01-31T03:36:04.497Z,18.90
2023-01-31T03:39:25.687Z,19.42
2023-01-31T03:42:50.321Z,20.08
2023-01-31T03:46:00.209Z,19.98
2023-01-31T03:49:05.648Z,17.38
2023-01-31T03:52:10.647Z,18.42
2023-01-31T03:55:34.657Z,16.27
2023-01-31T03:58:41.758Z,16.17
2023-01-31T04:01:47.946Z,20.42
2023-01-31T04:05:10.194Z,16.98
2023-01-31T04:08:15.879Z,19.02
2023-01-31T04:11:25.952Z,21.50
2023-01-31T04:14:28.626Z,18.17
2023-01-31T04:17:30.429Z,18.40
2023-01-31T04:20:32.430Z,19.67
2023-01-31T04:23:34.344Z,21.65
2023-01-31T04:26:37.142Z,17.48
2023-01-31T04:29:39.140Z,20.23
2023-01-31T04:32:41.305Z,17.60
2023-01-31T04:35:53.326Z,17.15
2023-01-31T04:38:55.464Z,17.88
2023-01-31T04:41:57.347Z,18.02
2023-01-31T04:44:59.244Z,19.95
2023-01-31T04:48:01.254Z,16.92
2023-01-31T04:51:03.294Z,18.25
2023-01-31T04:54:05.270Z,16.23
2023-01-31T04:57:07.736Z,17.00
2023-01-31T05:00:10.627Z,16.98
2023-01-31T05:03:13.087Z,21.55
2023-01-31T05:06:15.015Z,17.55
2023-01-31T05:09:16.954Z,19.67
2023-01-31T05:12:18.850Z,16.95
2023-01-31T05:15:20.974Z,18.92
2023-01-31T05:18:23.111Z,16.15
2023-01-31T05:21:24.977Z,21.65
2023-01-31T05:24:29.841Z,18.35
2023-01-31T05:27:31.796Z,17.50
2023-01-31T05:30:33.910Z,17.50
2023-01-31T05:33:36.414Z,21.05
2023-01-31T05:36:38.844Z,15.88
2023-01-31T05:39:40.840Z,21.70
2023-01-31T05:42:43.345Z,17.58
2023-01-31T05:45:47.760Z,22.92
2023-01-31T05:48:49.880Z,18.58
2023-01-31T05:51:51.757Z,22.52
2023-01-31T05:54:53.736Z,20.08
2023-01-31T05:57:58.360Z,18.75
2023-01-31T06:01:00.946Z,18.25
2023-01-31T06:04:02.987Z,18.55
2023-01-31T06:07:04.964Z,19.45
2023-01-31T06:10:08.951Z,15.93
2023-01-31T06:13:10.915Z,17.67
2023-01-31T06:16:13.352Z,18.63
2023-01-31T06:19:15.263Z,19.80
2023-01-31T06:22:17.441Z,22.45
2023-01-31T06:25:22.240Z,22.05
2023-01-31T06:28:24.352Z,21.17
2023-01-31T06:31:26.426Z,23.45
2023-01-31T06:34:28.583Z,23.77
2023-01-31T06:37:30.623Z,19.52
2023-01-31T06:40:32.843Z,19.02
2023-01-31T06:43:34.886Z,21.45
2023-01-31T06:46:37.015Z,24.83
2023-01-31T06:49:39.213Z,20.55
2023-01-31T06:52:41.658Z,22.00
2023-01-31T06:55:43.823Z,21.15
2023-01-31T06:58:45.824Z,22.45
2023-01-31T07:01:50.474Z,21.40
2023-01-31T07:04:52.994Z,20.13
2023-01-31T07:07:55.109Z,21.33
2023-01-31T07:11:00.097Z,23.42
2023-01-31T07:14:02.100Z,24.92
2023-01-31T07:17:04.513Z,24.77
2023-01-31T07:20:07.367Z,24.45
2023-01-31T07:23:10.303Z,21.00
2023-01-31T07:26:12.353Z,23.67
2023-01-31T07:29:14.475Z,23.85
2023-01-31T07:32:17.288Z,29.55
2023-01-31T07:35:19.925Z,21.45
2023-01-31T07:38:22.037Z,21.52
2023-01-31T07:41:25.216Z,21.33
2023-01-31T07:44:27.213Z,20.15
2023-01-31T07:47:31.955Z,17.52
2023-01-31T07:50:34.164Z,19.80
2023-01-31T07:53:38.978Z,22.08
2023-01-31T07:56:41.001Z,18.67
2023-01-31T07:59:43.249Z,22.30
2023-01-31T08:02:45.262Z,18.92
2023-01-31T08:05:47.971Z,18.88
2023-01-31T08:08:50.092Z,20.60
2023-01-31T08:11:52.094Z,22.48
2023-01-31T08:14:54.105Z,17.40
2023-01-31T08:17:56.414Z,16.77
2023-01-31T08:20:59.591Z,13.05
2023-01-31T08:24:01.622Z,15.93
2023-01-31T08:27:04.041Z,15.60
2023-01-31T08:30:06.759Z,17.20
2023-01-31T08:33:10.132Z,16.45
2023-01-31T08:36:19.320Z,15.77
2023-01-31T08:39:21.415Z,14.05
2023-01-31T08:42:23.402Z,15.48
2023-01-31T08:45:25.672Z,19.42
2023-01-31T08:48:27.953Z,17.60
2023-01-31T08:51:30.321Z,15.30
2023-01-31T08:54:32.547Z,15.20
2023-01-31T08:57:34.791Z,14.82
2023-01-31T09:00:36.920Z,17.70
2023-01-31T09:03:40.193Z,19.45
2023-01-31T09:06:42.245Z,14.95
2023-01-31T09:09:46.640Z,17.58
2023-01-31T09:12:49.116Z,18.70
2023-01-31T09:16:04.516Z,16.10
2023-01-31T09:19:06.470Z,18.88
2023-01-31T09:22:08.550Z,17.58
2023-01-31T09:25:11.085Z,17.52
2023-01-31T09:28:13.057Z,18.75
2023-01-31T09:31:17.791Z,15.05
2023-01-31T09:34:19.759Z,21.15
2023-01-31T09:37:21.937Z,17.13
2023-01-31T09:40:26.324Z,18.75
2023-01-31T09:43:34.623Z,15.15
2023-01-31T09:46:43.639Z,21.02
2023-01-31T09:50:11.495Z,17.33
2023-01-31T09:53:15.983Z,17.50
2023-01-31T09:56:45.658Z,14.48
2023-01-31T10:00:11.179Z,19.45
2023-01-31T10:03:58.176Z,14.25
2023-01-31T10:07:15.757Z,15.35
2023-01-31T10:10:37.152Z,18.30
2023-01-31T10:13:42.459Z,14.60
2023-01-31T10:16:57.426Z,13.95
2023-01-31T10:20:22.131Z,16.58
2023-01-31T10:23:27.994Z,14.93
2023-01-31T10:26:34.839Z,14.20
2023-01-31T10:29:42.696Z,16.60
2023-01-31T10:32:47.793Z,15.30
2023-01-31T10:35:52.048Z,14.60
2023-01-31T10:39:08.169Z,16.58
2023-01-31T10:42:22.999Z,15.77
2023-01-31T10:45:28.931Z,14.20
2023-01-31T10:48:30.866Z,12.45
2023-01-31T10:51:45.008Z,11.20
2023-01-31T10:54:47.246Z,16.13
2023-01-31T10:57:50.325Z,14.05
2023-01-31T11:00:52.667Z,14.02
2023-01-31T11:03:56.514Z,12.23
2023-01-31T11:07:02.701Z,13.63
2023-01-31T11:10:28.998Z,11.15
2023-01-31T11:13:31.021Z,11.90
2023-01-31T11:16:38.260Z,12.95
2023-01-31T11:19:55.487Z,11.95
2023-01-31T11:22:59.438Z,11.48
2023-01-31T11:26:01.959Z,11.82
2023-01-31T11:29:15.857Z,13.00
2023-01-31T11:32:28.122Z,12.48
2023-01-31T11:35:32.068Z,10.57
2023-01-31T11:38:34.080Z,10.38
2023-01-31T11:41:37.412Z,12.95
2023-01-31T11:45:04.198Z,10.45
2023-01-31T11:48:22.400Z,11.95
2023-01-31T12:03:23.328Z,12.23
2023-01-31T12:09:41.224Z,10.90
2023-01-31T12:12:46.826Z,11.38
2023-01-31T12:16:04.370Z,10.98
2023-01-31T12:19:12.171Z,10.77
2023-01-31T12:22:33.087Z,10.88
2023-01-31T12:25:55.876Z,10.50
2023-01-31T12:29:28.320Z,12.15
2023-01-31T12:32:57.708Z,11.32
2023-01-31T12:36:23.124Z,10.10
2023-01-31T12:39:45.230Z,12.32
2023-01-31T12:42:59.458Z,12.00
2023-01-31T12:46:05.239Z,12.98
2023-01-31T12:49:29.673Z,11.32
2023-01-31T12:52:49.476Z,13.23
2023-01-31T12:56:00.696Z,14.45
2023-01-31T12:59:24.282Z,11.68
2023-01-31T13:02:39.945Z,12.10
2023-01-31T13:05:52.066Z,10.98
2023-01-31T13:09:15.066Z,11.30
2023-01-31T13:12:24.209Z,9.45
2023-01-31T13:15:42.970Z,8.93
2023-01-31T13:18:48.545Z,9.13
2023-01-31T13:21:56.333Z,10.02
2023-01-31T13:25:37.259Z,9.45
2023-01-31T13:29:03.324Z,12.63
2023-01-31T13:32:13.055Z,10.20
2023-01-31T13:35:41.369Z,8.55
2023-01-31T13:38:45.643Z,13.48
2023-01-31T13:41:47.548Z,12.65
2023-01-31T13:44:49.756Z,8.65
2023-01-31T13:48:10.451Z,11.65
2023-01-31T13:51:33.695Z,9.27
2023-01-31T13:54:52.186Z,9.52
2023-01-31T13:58:08.977Z,9.57
2023-01-31T14:01:21.686Z,11.15
2023-01-31T14:04:28.001Z,11.23
2023-01-31T14:07:30.086Z,8.35
2023-01-31T14:10:38.055Z,9.35
2023-01-31T14:13:47.156Z,8.55
2023-01-31T14:16:51.737Z,8.60
2023-01-31T14:19:54.869Z,12.35
2023-01-31T14:23:29.243Z,7.72
2023-01-31T14:26:54.773Z,9.63
2023-01-31T14:30:05.524Z,12.88
2023-01-31T14:33:13.379Z,14.18
2023-01-31T14:36:45.404Z,12.57
2023-01-31T14:40:14.925Z,12.18
2023-01-31T14:43:20.068Z,10.10
2023-01-31T14:46:24.748Z,11.50
2023-01-31T14:49:29.573Z,9.88
2023-01-31T14:52:50.411Z,8.23
2023-01-31T14:56:11.222Z,9.05
2023-01-31T14:59:51.813Z,10.25
2023-01-31T15:03:16.269Z,8.38
2023-01-31T15:06:28.144Z,10.25
2023-01-31T15:09:38.784Z,12.07
2023-01-31T15:12:58.716Z,9.20
2023-01-31T15:16:05.353Z,10.70
2023-01-31T15:19:20.798Z,8.27
2023-01-31T15:22:23.552Z,9.93
2023-01-31T15:25:35.025Z,9.95
2023-01-31T15:28:41.233Z,8.77
2023-01-31T15:31:48.543Z,8.55
2023-01-31T15:35:07.600Z,10.30
2023-01-31T15:38:31.154Z,11.85
2023-01-31T15:41:43.124Z,9.77
2023-01-31T15:44:48.921Z,12.73
2023-01-31T15:48:11.490Z,11.07
2023-01-31T15:51:14.371Z,12.48
2023-01-31T15:54:16.197Z,10.77
2023-01-31T15:57:18.664Z,9.98
2023-01-31T16:00:30.941Z,10.77
2023-01-31T16:03:41.530Z,9.82
2023-01-31T16:06:43.473Z,9.35
2023-01-31T16:09:46.139Z,11.10
2023-01-31T16:12:50.267Z,11.93
2023-01-31T16:15:52.754Z,10.65
2023-01-31T16:18:57.727Z,8.80
2023-01-31T16:21:59.923Z,9.40
2023-01-31T16:25:04.024Z,11.48
2023-01-31T16:28:11.384Z,10.10
2023-01-31T16:31:16.409Z,9.63
2023-01-31T16:34:26.423Z,10.82
2023-01-31T16:37:43.224Z,8.27
2023-01-31T16:40:49.079Z,9.80
2023-01-31T16:43:54.862Z,9.02
2023-01-31T16:46:57.143Z,10.55
2023-01-31T16:50:42.356Z,9.20
2023-01-31T16:53:45.496Z,10.65
2023-01-31T16:57:08.739Z,9.60
2023-01-31T17:00:26.018Z,10.00
2023-01-31T17:03:28.036Z,13.15
2023-01-31T17:06:31.298Z,9.52
2023-01-31T17:09:33.533Z,9.48
2023-01-31T17:12:38.900Z,8.93
2023-01-31T17:15:42.289Z,11.68
2023-01-31T17:18:44.320Z,9.65
2023-01-31T17:21:46.726Z,12.63
2023-01-31T17:24:50.135Z,9.73
2023-01-31T17:27:52.144Z,10.77
2023-01-31T17:30:54.291Z,11.55
2023-01-31T17:33:56.302Z,11.23
2023-01-31T17:36:58.431Z,9.63
2023-01-31T17:40:00.934Z,9.23
2023-01-31T17:43:06.924Z,9.90
2023-01-31T17:46:13.298Z,8.77
2023-01-31T17:49:15.196Z,10.07
2023-01-31T17:52:17.177Z,11.63
2023-01-31T17:55:20.730Z,13.40
2023-01-31T17:58:23.079Z,10.20
2023-01-31T18:01:25.020Z,9.25
2023-01-31T18:04:27.001Z,10.00
2023-01-31T18:07:29.125Z,8.75
2023-01-31T18:10:31.001Z,11.10
2023-01-31T18:13:33.124Z,8.82
2023-01-31T18:16:35.002Z,11.18
2023-01-31T18:19:37.164Z,10.68
2023-01-31T18:22:39.057Z,10.45
2023-01-31T18:25:41.142Z,10.40
2023-01-31T18:28:43.260Z,11.65
2023-01-31T18:31:46.205Z,11.65
2023-01-31T18:34:48.437Z,12.43
2023-01-31T18:37:50.449Z,10.68
2023-01-31T18:40:53.564Z,10.38
2023-01-31T18:43:55.870Z,11.23
2023-01-31T18:46:57.966Z,10.70
2023-01-31T18:49:59.995Z,12.18
2023-01-31T18:53:02.205Z,11.90
2023-01-31T18:56:06.836Z,10.52
2023-01-31T18:59:09.044Z,10.23
2023-01-31T19:02:11.262Z,9.52
2023-01-31T19:05:13.381Z,9.65
2023-01-31T19:08:15.427Z,11.20
2023-01-31T19:11:19.241Z,8.45
2023-01-31T19:14:21.404Z,8.45
2023-01-31T19:17:23.736Z,8.63
2023-01-31T19:20:28.119Z,10.05
2023-01-31T19:23:30.638Z,10.35
2023-01-31T19:26:34.263Z,10.63
2023-01-31T19:29:37.839Z,8.80
2023-01-31T19:32:41.977Z,10.63
2023-01-31T19:35:44.111Z,8.93
2023-01-31T19:38:46.553Z,8.95
2023-01-31T19:41:48.755Z,10.13
2023-01-31T19:44:52.697Z,9.65
2023-01-31T19:47:58.070Z,8.50
2023-01-31T19:51:07.422Z,9.98
2023-01-31T19:54:14.194Z,12.38
2023-01-31T19:57:16.319Z,10.40
2023-01-31T20:00:18.569Z,10.32
2023-01-31T20:03:20.665Z,10.18
2023-01-31T20:06:26.005Z,11.65
2023-01-31T20:09:28.594Z,10.63
2023-01-31T20:12:30.939Z,9.13
2023-01-31T20:15:34.938Z,9.55
2023-01-31T20:18:38.509Z,9.88
2023-01-31T20:21:40.724Z,13.05
2023-01-31T20:24:42.815Z,10.48
2023-01-31T20:27:45.334Z,8.32
2023-01-31T20:30:48.211Z,8.77
2023-01-31T20:36:52.984Z,11.30
2023-01-31T20:39:55.796Z,8.75
2023-01-31T20:42:57.899Z,8.02
2023-01-31T20:46:05.422Z,8.02
2023-01-31T20:49:07.597Z,8.77
2023-01-31T20:52:09.618Z,8.43
2023-01-31T20:55:11.678Z,8.23
2023-01-31T20:58:15.404Z,6.85
2023-01-31T21:01:17.602Z,12.10
2023-01-31T21:04:19.637Z,9.35
2023-01-31T21:07:21.746Z,8.68
2023-01-31T21:10:23.886Z,8.90
2023-01-31T21:13:27.674Z,10.90
2023-01-31T21:16:30.153Z,7.90
2023-01-31T21:19:32.350Z,7.85
2023-01-31T21:22:34.854Z,7.28
2023-01-31T21:25:37.188Z,9.07
2023-01-31T21:28:39.589Z,10.18
2023-01-31T21:31:42.029Z,9.77
2023-01-31T21:34:44.300Z,11.35
2023-01-31T21:37:48.504Z,9.75
2023-01-31T21:40:51.383Z,8.18
2023-01-31T21:46:55.406Z,10.13
2023-01-31T21:49:57.511Z,8.50
2023-01-31T21:52:59.464Z,9.50
2023-01-31T21:56:09.500Z,7.22
2023-01-31T21:59:11.356Z,9.07
2023-01-31T22:02:13.269Z,9.35
2023-01-31T22:05:15.234Z,8.23
2023-01-31T22:08:17.249Z,9.63
2023-01-31T22:11:19.519Z,10.20
2023-01-31T22:14:21.464Z,8.70
2023-01-31T22:17:23.355Z,9.02
2023-01-31T22:20:27.747Z,8.20
2023-01-31T22:23:29.765Z,7.82
2023-01-31T22:26:34.632Z,8.30
2023-01-31T22:29:36.507Z,8.10
2023-01-31T22:32:38.615Z,9.77
2023-01-31T22:35:40.799Z,10.15
2023-01-31T22:38:43.215Z,8.93
2023-01-31T22:41:45.253Z,8.50
2023-01-31T22:44:47.164Z,9.23
2023-01-31T22:47:49.104Z,7.68
2023-01-31T22:50:59.479Z,7.85
2023-01-31T22:54:01.405Z,8.73
2023-01-31T22:57:03.353Z,10.35
2023-01-31T23:00:05.914Z,8.50
2023-01-31T23:03:07.761Z,8.95
2023-01-31T23:06:10.990Z,7.70
2023-01-31T23:09:12.921Z,6.53
2023-01-31T23:12:14.815Z,7.68
2023-01-31T23:15:17.191Z,6.32
2023-01-31T23:18:19.042Z,8.63
2023-01-31T23:21:21.033Z,7.20
2023-01-31T23:24:23.024Z,8.52
2023-01-31T23:27:25.105Z,11.57
2023-01-31T23:30:27.540Z,7.75
2023-01-31T23:33:29.490Z,9.10
2023-01-31T23:36:31.573Z,7.35
2023-01-31T23:39:33.516Z,8.60
2023-01-31T23:42:35.791Z,8.95
2023-01-31T23:45:37.791Z,9.48
2023-01-31T23:48:39.688Z,8.95
2023-01-31T23:51:41.670Z,7.85
2023-01-31T23:54:43.585Z,11.23
2023-01-31T23:57:46.075Z,9.27
